LSZB METAR and TAF | Updated Today

LSZB METAR

Bern Belp Airport

Observation time: 7 min. ago

LSZB 061820Z 04004KT 350V100 9999 BKN036 02/M03 Q1032

Need help? Read our tutorial on how to read METARs or read the parsed version below.

Bern Belp Airport (LSZB) METAR

  • Weather conditions on Mon, 06 Feb 2023 18:20:00 +0000 (7 min. ago):
  • Present conditions: Dry
  • Clouds: Broken sky at 1097 meters
  • Visibility: Greater than 10 km
  • Wind: 40 degrees at 4 knots
  • Temperature: 2 celsius
  • Dew point: -3 celsius
  • Pressure: 1032 millibars
  • Remarks: None


Useful to know...

LSZB TAF

Bern Belp Airport

TAF LSZB 061425Z 0615/0624 36007KT 9999 BKN034 PROB30 TEMPO 0620/0624 4500 -SN
Observation time: 4:02 hr. ago
Need help? Read our tutorial on how to read TAFs or read the parsed version below.

Parsed version of TAF for Bern Belp Airport (LSZB)

  • From 06 February at 15:00 UTC, to day 06 of the month at 24:00 UTC
  • Clouds: Broken sky at 1036 meters
  • Visibility: Greater than 10 km
  • Wind: 360 degrees at 7
  • Expected to arise temporarily, from 06 February at 20:00 UTC, to day 06 of the month at 24:00 UTC
    Probability of 30%
  • Visibility: 4500 meters
  • Other: Light snow